createdAt,value
2018-06-01T00:00:18.512Z,22.90
2018-06-01T00:00:50.265Z,22.80
2018-06-01T00:01:21.990Z,22.80
2018-06-01T00:01:53.722Z,22.80
2018-06-01T00:02:25.442Z,22.80
2018-06-01T00:02:57.174Z,22.80
2018-06-01T00:03:29.685Z,22.90
2018-06-01T00:04:01.413Z,22.90
2018-06-01T00:04:33.159Z,22.90
2018-06-01T00:05:04.910Z,22.90
2018-06-01T00:05:36.650Z,22.90
2018-06-01T00:06:08.359Z,22.80
2018-06-01T00:06:40.099Z,22.90
2018-06-01T00:07:11.830Z,22.80
2018-06-01T00:07:44.335Z,22.80
2018-06-01T00:08:16.067Z,22.80
2018-06-01T00:08:47.819Z,22.80
2018-06-01T00:09:19.738Z,22.90
2018-06-01T00:09:52.263Z,22.80
2018-06-01T00:10:23.957Z,22.80
2018-06-01T00:10:55.702Z,22.80
2018-06-01T00:11:27.457Z,22.80
2018-06-01T00:11:59.199Z,22.80
2018-06-01T00:12:31.012Z,22.80
2018-06-01T00:13:02.727Z,22.80
2018-06-01T00:13:34.432Z,22.80
2018-06-01T00:14:06.162Z,22.80
2018-06-01T00:14:37.896Z,22.80
2018-06-01T00:15:10.404Z,22.80
2018-06-01T00:15:42.135Z,22.80
2018-06-01T00:16:13.862Z,22.80
2018-06-01T00:16:45.587Z,22.80
2018-06-01T00:17:17.300Z,22.80
2018-06-01T00:17:49.038Z,22.80
2018-06-01T00:18:20.769Z,22.80
2018-06-01T00:18:52.489Z,22.80
2018-06-01T00:19:24.236Z,22.80
2018-06-01T00:19:55.957Z,22.80
2018-06-01T00:20:27.669Z,22.80
2018-06-01T00:20:59.392Z,22.70
2018-06-01T00:21:31.129Z,22.70
2018-06-01T00:22:02.897Z,22.70
2018-06-01T00:22:34.646Z,22.70
2018-06-01T00:23:06.366Z,22.80
2018-06-01T00:23:38.104Z,22.70
2018-06-01T00:24:09.849Z,22.70
2018-06-01T00:24:41.557Z,22.70
2018-06-01T00:25:14.362Z,22.70
2018-06-01T00:25:46.842Z,22.70
2018-06-01T00:26:18.599Z,22.80
2018-06-01T00:26:50.337Z,22.70
2018-06-01T00:27:22.075Z,22.70
2018-06-01T00:27:53.805Z,22.70
2018-06-01T00:28:25.550Z,22.70
2018-06-01T00:28:57.290Z,22.70
2018-06-01T00:29:29.005Z,22.70
2018-06-01T00:30:01.592Z,22.70
2018-06-01T00:30:33.312Z,22.70
2018-06-01T00:31:05.068Z,22.70
2018-06-01T00:31:36.794Z,22.70
2018-06-01T00:32:09.283Z,22.70
2018-06-01T00:32:41.005Z,22.70
2018-06-01T00:33:12.780Z,22.70
2018-06-01T00:33:44.517Z,22.70
2018-06-01T00:34:16.227Z,22.70
2018-06-01T00:34:48.734Z,22.70
2018-06-01T00:35:20.477Z,22.70
2018-06-01T00:35:52.186Z,22.70
2018-06-01T00:36:24.691Z,22.70
2018-06-01T00:36:56.423Z,22.70
2018-06-01T00:37:28.193Z,22.70
2018-06-01T00:37:59.955Z,22.70
2018-06-01T00:38:31.686Z,22.70
2018-06-01T00:39:03.423Z,22.70
2018-06-01T00:39:35.168Z,22.70
2018-06-01T00:40:06.894Z,22.70
2018-06-01T00:40:38.647Z,22.70
2018-06-01T00:41:10.642Z,22.70
2018-06-01T00:41:43.134Z,22.70
2018-06-01T00:42:14.886Z,22.70
2018-06-01T00:42:46.601Z,22.70
2018-06-01T00:43:19.079Z,22.70
2018-06-01T00:43:51.582Z,22.70
2018-06-01T00:44:23.306Z,22.70
2018-06-01T00:44:55.041Z,22.70
2018-06-01T00:45:26.772Z,22.70
2018-06-01T00:45:58.506Z,22.70
2018-06-01T00:46:31.043Z,22.70
2018-06-01T00:47:02.749Z,22.70
2018-06-01T00:47:34.471Z,22.70
2018-06-01T00:48:06.244Z,22.70
2018-06-01T00:48:37.955Z,22.70
2018-06-01T00:49:09.677Z,22.70
2018-06-01T00:49:42.202Z,22.70
2018-06-01T00:50:13.903Z,22.60
2018-06-01T00:50:45.621Z,22.60
2018-06-01T00:51:18.118Z,22.60
2018-06-01T00:51:49.875Z,22.60
2018-06-01T00:52:21.607Z,22.70
2018-06-01T00:52:53.339Z,22.70
2018-06-01T00:53:25.082Z,22.60
2018-06-01T00:53:56.809Z,22.60
2018-06-01T00:54:29.293Z,22.60
2018-06-01T00:55:01.027Z,22.60
2018-06-01T00:55:33.561Z,22.60
2018-06-01T00:56:05.264Z,22.60
2018-06-01T00:56:36.989Z,22.60
2018-06-01T00:57:08.763Z,22.60
2018-06-01T00:57:40.474Z,22.60
2018-06-01T00:58:12.199Z,22.60
2018-06-01T00:58:44.697Z,22.60
2018-06-01T00:59:16.418Z,22.60
2018-06-01T00:59:48.170Z,22.60
2018-06-01T01:00:20.653Z,22.60
2018-06-01T01:00:52.399Z,22.60
2018-06-01T01:01:24.317Z,22.60
2018-06-01T01:01:56.816Z,22.60
2018-06-01T01:02:28.540Z,22.60
2018-06-01T01:03:00.270Z,22.60
2018-06-01T01:03:32.018Z,22.60
2018-06-01T01:04:03.782Z,22.60
2018-06-01T01:04:35.497Z,22.60
2018-06-01T01:05:07.247Z,22.60
2018-06-01T01:05:38.987Z,22.50
2018-06-01T01:06:11.478Z,22.50
2018-06-01T01:06:43.219Z,22.50
2018-06-01T01:07:14.952Z,22.50
2018-06-01T01:07:46.686Z,22.50
2018-06-01T01:08:18.425Z,22.50
2018-06-01T01:08:50.921Z,22.50
2018-06-01T01:09:22.641Z,22.50
2018-06-01T01:09:54.364Z,22.50
2018-06-01T01:10:26.892Z,22.50
2018-06-01T01:10:58.641Z,22.40
2018-06-01T01:11:30.386Z,22.50
2018-06-01T01:12:02.116Z,22.50
2018-06-01T01:12:33.875Z,22.50
2018-06-01T01:13:05.600Z,22.50
2018-06-01T01:13:37.323Z,22.50
2018-06-01T01:14:09.070Z,22.50
2018-06-01T01:14:40.791Z,22.40
2018-06-01T01:15:13.280Z,22.40
2018-06-01T01:15:45.026Z,22.40
2018-06-01T01:16:16.803Z,22.40
2018-06-01T01:16:48.550Z,22.40
2018-06-01T01:17:20.250Z,22.40
2018-06-01T01:17:52.007Z,22.40
2018-06-01T01:18:23.707Z,22.40
2018-06-01T01:18:56.254Z,22.40
2018-06-01T01:19:28.026Z,22.40
2018-06-01T01:19:59.776Z,22.40
2018-06-01T01:20:32.270Z,22.40
2018-06-01T01:21:03.993Z,22.40
2018-06-01T01:21:35.734Z,22.40
2018-06-01T01:22:07.479Z,22.40
2018-06-01T01:22:39.239Z,22.40
2018-06-01T01:23:10.971Z,22.40
2018-06-01T01:23:42.714Z,22.40
2018-06-01T01:24:15.203Z,22.40
2018-06-01T01:24:46.941Z,22.40
2018-06-01T01:25:18.683Z,22.40
2018-06-01T01:25:50.394Z,22.40
2018-06-01T01:26:22.130Z,22.30
2018-06-01T01:26:54.618Z,22.30
2018-06-01T01:27:26.362Z,22.40
2018-06-01T01:27:58.077Z,22.30
2018-06-01T01:28:30.563Z,22.30
2018-06-01T01:29:02.310Z,22.40
2018-06-01T01:29:34.025Z,22.40
2018-06-01T01:30:06.534Z,22.40
2018-06-01T01:30:38.277Z,22.40
2018-06-01T01:31:10.038Z,22.40
2018-06-01T01:31:41.746Z,22.30
2018-06-01T01:32:13.475Z,22.40
2018-06-01T01:32:45.240Z,22.30
2018-06-01T01:33:17.720Z,22.30
2018-06-01T01:33:49.449Z,22.30
2018-06-01T01:34:21.242Z,22.30
2018-06-01T01:34:53.113Z,22.30
2018-06-01T01:35:25.622Z,22.30
2018-06-01T01:35:57.342Z,22.30
2018-06-01T01:36:29.139Z,22.30
2018-06-01T01:37:00.857Z,22.30
2018-06-01T01:37:32.604Z,22.30
2018-06-01T01:38:04.363Z,22.30
2018-06-01T01:38:36.077Z,22.30
2018-06-01T01:39:07.825Z,22.30
2018-06-01T01:39:39.568Z,22.30
2018-06-01T01:40:11.286Z,22.30
2018-06-01T01:40:43.819Z,22.30
2018-06-01T01:41:15.558Z,22.30
2018-06-01T01:41:47.296Z,22.30
2018-06-01T01:42:18.993Z,22.30
2018-06-01T01:42:50.754Z,22.30
2018-06-01T01:43:22.465Z,22.30
2018-06-01T01:43:54.960Z,22.30
2018-06-01T01:44:26.696Z,22.30
2018-06-01T01:44:58.425Z,22.20
2018-06-01T01:45:30.165Z,22.20
2018-06-01T01:46:01.971Z,22.20
2018-06-01T01:46:33.711Z,22.20
2018-06-01T01:47:05.438Z,22.30
2018-06-01T01:47:37.167Z,22.30
2018-06-01T01:48:09.086Z,22.30
2018-06-01T01:48:41.656Z,22.30
2018-06-01T01:49:14.141Z,22.20
2018-06-01T01:49:45.872Z,22.30
2018-06-01T01:50:17.625Z,22.30
2018-06-01T01:50:49.347Z,22.30
2018-06-01T01:51:21.901Z,22.20
2018-06-01T01:51:54.401Z,22.20
2018-06-01T01:52:26.150Z,22.20
2018-06-01T01:52:57.878Z,22.20
2018-06-01T01:53:29.618Z,22.30
2018-06-01T01:54:01.390Z,22.20
2018-06-01T01:54:33.088Z,22.20
2018-06-01T01:55:05.570Z,22.20
2018-06-01T01:55:37.308Z,22.20
2018-06-01T01:56:09.040Z,22.20
2018-06-01T01:56:40.787Z,22.20
2018-06-01T01:57:12.553Z,22.20
2018-06-01T01:57:44.258Z,22.20
2018-06-01T01:58:16.755Z,22.20
2018-06-01T01:58:48.485Z,22.20
2018-06-01T01:59:20.233Z,22.20
2018-06-01T01:59:51.980Z,22.20
2018-06-01T02:00:23.704Z,22.20
2018-06-01T02:00:56.255Z,22.20
2018-06-01T02:01:27.976Z,22.20
2018-06-01T02:01:59.726Z,22.20
2018-06-01T02:02:31.447Z,22.20
2018-06-01T02:03:03.181Z,22.20
2018-06-01T02:03:34.916Z,22.10
2018-06-01T02:04:06.647Z,22.10
2018-06-01T02:04:38.410Z,22.10
2018-06-01T02:05:10.115Z,22.10
2018-06-01T02:05:42.623Z,22.10
2018-06-01T02:06:14.369Z,22.10
2018-06-01T02:06:46.088Z,22.10
2018-06-01T02:07:17.817Z,22.10
2018-06-01T02:07:50.337Z,22.10
2018-06-01T02:08:22.069Z,22.10
2018-06-01T02:08:53.790Z,22.00
2018-06-01T02:09:25.521Z,22.10
2018-06-01T02:09:57.278Z,22.10
2018-06-01T02:10:29.007Z,22.10
2018-06-01T02:11:00.734Z,22.10
2018-06-01T02:11:33.242Z,22.10
2018-06-01T02:12:04.981Z,22.10
2018-06-01T02:12:36.702Z,22.10
2018-06-01T02:13:08.462Z,22.10
2018-06-01T02:13:40.226Z,22.20
2018-06-01T02:14:11.930Z,22.20
2018-06-01T02:14:43.663Z,22.10
2018-06-01T02:15:16.183Z,22.10
2018-06-01T02:15:48.215Z,22.10
2018-06-01T02:16:20.892Z,22.20
2018-06-01T02:16:52.788Z,22.20
2018-06-01T02:17:24.477Z,22.10
2018-06-01T02:17:56.210Z,22.10
2018-06-01T02:18:27.936Z,22.10
2018-06-01T02:18:59.678Z,22.10
2018-06-01T02:19:32.172Z,22.20
2018-06-01T02:20:03.891Z,22.10
2018-06-01T02:20:35.614Z,22.20
2018-06-01T02:21:08.111Z,22.20
2018-06-01T02:21:39.831Z,22.10
2018-06-01T02:22:12.328Z,22.10
2018-06-01T02:22:44.046Z,22.10
2018-06-01T02:23:15.792Z,22.10
2018-06-01T02:23:48.278Z,22.20
2018-06-01T02:24:20.014Z,22.10
2018-06-01T02:24:51.730Z,22.20
2018-06-01T02:25:24.219Z,22.20
2018-06-01T02:25:55.957Z,22.20
2018-06-01T02:26:28.444Z,22.20
2018-06-01T02:27:00.165Z,22.10
2018-06-01T02:27:31.900Z,22.10
2018-06-01T02:28:03.615Z,22.20
2018-06-01T02:28:35.347Z,22.10
2018-06-01T02:29:07.060Z,22.10
2018-06-01T02:29:39.068Z,22.10
2018-06-01T02:30:11.554Z,22.10
2018-06-01T02:30:43.321Z,22.10
2018-06-01T02:31:15.027Z,22.10
2018-06-01T02:31:46.762Z,22.10
2018-06-01T02:32:19.256Z,22.20
2018-06-01T02:32:51.005Z,22.20
2018-06-01T02:33:22.710Z,22.20
2018-06-01T02:33:55.211Z,22.20
2018-06-01T02:34:26.969Z,22.20
2018-06-01T02:34:58.673Z,22.20
2018-06-01T02:35:30.425Z,22.10
2018-06-01T02:36:02.990Z,22.10
2018-06-01T02:36:34.763Z,22.10
2018-06-01T02:37:06.514Z,22.10
2018-06-01T02:37:38.235Z,22.10
2018-06-01T02:38:09.969Z,22.10
2018-06-01T02:38:41.710Z,22.10
2018-06-01T02:39:13.445Z,22.10
2018-06-01T02:39:45.177Z,22.10
2018-06-01T02:40:17.681Z,22.10
2018-06-01T02:40:49.387Z,22.10
2018-06-01T02:41:21.886Z,22.10
2018-06-01T02:41:53.611Z,22.10
2018-06-01T02:42:25.345Z,22.10
2018-06-01T02:42:57.822Z,22.10
2018-06-01T02:43:29.553Z,22.10
2018-06-01T02:44:01.280Z,22.10
2018-06-01T02:44:33.850Z,22.10
2018-06-01T02:45:05.504Z,22.00
2018-06-01T02:45:37.263Z,22.10
2018-06-01T02:46:08.983Z,22.10
2018-06-01T02:46:41.504Z,22.10
2018-06-01T02:47:13.226Z,22.10
2018-06-01T02:47:45.000Z,22.10
2018-06-01T02:48:16.698Z,22.10
2018-06-01T02:48:48.425Z,22.10
2018-06-01T02:49:20.929Z,22.10
2018-06-01T02:49:52.637Z,22.10
2018-06-01T02:50:24.365Z,22.10
2018-06-01T02:50:56.863Z,22.00
2018-06-01T02:51:28.584Z,22.00
2018-06-01T02:52:00.317Z,22.00
2018-06-01T02:52:32.819Z,22.00
2018-06-01T02:53:04.553Z,22.00
2018-06-01T02:53:36.286Z,22.00
2018-06-01T02:54:08.024Z,22.00
2018-06-01T02:54:40.501Z,22.00
2018-06-01T02:55:12.229Z,22.00
2018-06-01T02:55:44.717Z,22.00
2018-06-01T02:56:16.574Z,22.00
2018-06-01T02:56:48.282Z,22.00
2018-06-01T02:57:20.026Z,22.00
2018-06-01T02:57:52.518Z,22.10
2018-06-01T02:58:24.229Z,22.10
2018-06-01T02:58:55.970Z,22.10
2018-06-01T02:59:28.475Z,22.10
2018-06-01T03:00:00.194Z,22.10
2018-06-01T03:00:31.915Z,22.10
2018-06-01T03:01:04.430Z,22.10
2018-06-01T03:01:36.140Z,22.10
2018-06-01T03:02:07.857Z,22.00
2018-06-01T03:02:40.361Z,22.00
2018-06-01T03:03:12.078Z,22.00
2018-06-01T03:03:44.555Z,22.00
2018-06-01T03:04:16.296Z,22.00
2018-06-01T03:04:48.090Z,22.00
2018-06-01T03:05:19.820Z,22.00
2018-06-01T03:05:51.546Z,22.00
2018-06-01T03:06:23.267Z,22.00
2018-06-01T03:06:54.991Z,22.00
2018-06-01T03:07:27.486Z,22.00
2018-06-01T03:07:59.222Z,22.00
2018-06-01T03:08:30.978Z,22.00
2018-06-01T03:09:02.699Z,22.00
2018-06-01T03:09:34.427Z,22.00
2018-06-01T03:10:06.142Z,22.00
2018-06-01T03:10:37.867Z,22.00
2018-06-01T03:11:09.601Z,22.10
2018-06-01T03:11:41.328Z,22.00
2018-06-01T03:12:13.045Z,22.00
2018-06-01T03:12:45.551Z,22.00
2018-06-01T03:13:17.302Z,22.00
2018-06-01T03:13:49.009Z,22.00
2018-06-01T03:14:21.510Z,22.00
2018-06-01T03:14:53.255Z,22.00
2018-06-01T03:15:24.971Z,22.00
2018-06-01T03:15:56.712Z,22.00
2018-06-01T03:16:28.459Z,22.00
2018-06-01T03:17:00.934Z,22.00
2018-06-01T03:17:32.655Z,22.00
2018-06-01T03:18:04.382Z,22.00
2018-06-01T03:18:36.124Z,22.00
2018-06-01T03:19:07.851Z,22.00
2018-06-01T03:19:39.573Z,22.00
2018-06-01T03:20:11.303Z,22.00
2018-06-01T03:20:43.035Z,22.00
2018-06-01T03:21:14.764Z,22.00
2018-06-01T03:21:47.258Z,21.90
2018-06-01T03:22:18.982Z,21.90
2018-06-01T03:22:50.712Z,22.00
2018-06-01T03:23:23.225Z,22.00
2018-06-01T03:23:54.934Z,21.90
2018-06-01T03:24:26.743Z,22.00
2018-06-01T03:24:58.466Z,22.00
2018-06-01T03:25:30.218Z,22.00
2018-06-01T03:26:01.961Z,22.00
2018-06-01T03:26:33.719Z,22.00
2018-06-01T03:27:05.492Z,22.00
2018-06-01T03:27:37.183Z,22.00
2018-06-01T03:28:08.913Z,22.00
2018-06-01T03:28:40.682Z,22.00
2018-06-01T03:29:12.400Z,22.00
2018-06-01T03:29:44.140Z,22.00
2018-06-01T03:30:15.893Z,22.00
2018-06-01T03:30:47.585Z,22.00
2018-06-01T03:31:20.081Z,22.00
2018-06-01T03:31:51.806Z,21.90
2018-06-01T03:32:23.544Z,21.90
2018-06-01T03:32:56.033Z,21.90
2018-06-01T03:33:27.751Z,21.90
2018-06-01T03:34:00.264Z,21.90
2018-06-01T03:34:31.977Z,21.90
2018-06-01T03:35:03.714Z,21.90
2018-06-01T03:35:36.227Z,21.90
2018-06-01T03:36:08.000Z,21.90
2018-06-01T03:36:39.684Z,21.90
2018-06-01T03:37:11.411Z,21.90
2018-06-01T03:37:43.158Z,21.90
2018-06-01T03:38:14.882Z,21.80
2018-06-01T03:38:47.378Z,21.90
2018-06-01T03:39:19.108Z,21.90
2018-06-01T03:39:50.849Z,21.90
2018-06-01T03:40:22.574Z,21.90
2018-06-01T03:40:55.063Z,21.90
2018-06-01T03:41:27.471Z,21.90
2018-06-01T03:41:59.198Z,21.90
2018-06-01T03:42:30.969Z,21.90
2018-06-01T03:43:02.676Z,21.90
2018-06-01T03:43:34.394Z,21.90
2018-06-01T03:44:06.151Z,21.90
2018-06-01T03:44:38.618Z,21.90
2018-06-01T03:45:10.344Z,21.90
2018-06-01T03:45:42.074Z,21.80
2018-06-01T03:46:14.590Z,21.80
2018-06-01T03:46:46.310Z,21.80
2018-06-01T03:47:18.026Z,21.80
2018-06-01T03:47:49.776Z,21.80
2018-06-01T03:48:21.505Z,21.80
2018-06-01T03:48:53.994Z,21.80
2018-06-01T03:49:25.755Z,21.80
2018-06-01T03:49:57.492Z,21.80
2018-06-01T03:50:29.207Z,21.80
2018-06-01T03:51:00.957Z,21.80
2018-06-01T03:51:32.702Z,21.80
2018-06-01T03:52:04.428Z,21.80
2018-06-01T03:52:36.928Z,21.80
2018-06-01T03:53:08.653Z,21.80
2018-06-01T03:53:40.412Z,21.80
2018-06-01T03:54:12.132Z,21.80
2018-06-01T03:54:44.630Z,21.80
2018-06-01T03:55:16.372Z,21.80
2018-06-01T03:55:48.094Z,21.80
2018-06-01T03:56:19.849Z,21.80
2018-06-01T03:56:52.320Z,21.90
2018-06-01T03:57:24.057Z,21.80
2018-06-01T03:57:55.783Z,21.90
2018-06-01T03:58:27.534Z,21.90
2018-06-01T03:58:59.315Z,21.90
2018-06-01T03:59:31.042Z,21.80
2018-06-01T04:00:02.773Z,21.80
2018-06-01T04:00:34.577Z,21.80
2018-06-01T04:01:06.302Z,21.80
2018-06-01T04:01:38.031Z,21.80
2018-06-01T04:02:09.760Z,21.80
2018-06-01T04:02:41.533Z,21.80
2018-06-01T04:03:13.261Z,21.80
2018-06-01T04:03:45.004Z,21.80
2018-06-01T04:04:16.714Z,21.80
2018-06-01T04:04:48.451Z,21.80
2018-06-01T04:05:20.976Z,21.80
2018-06-01T04:05:52.719Z,21.80
2018-06-01T04:06:24.449Z,21.80
2018-06-01T04:06:56.288Z,21.80
2018-06-01T04:07:28.001Z,21.80
2018-06-01T04:08:00.512Z,21.80
2018-06-01T04:08:32.249Z,21.80
2018-06-01T04:09:04.013Z,21.80
2018-06-01T04:09:35.749Z,21.80
2018-06-01T04:10:07.463Z,21.70
2018-06-01T04:10:39.186Z,21.80
2018-06-01T04:11:10.952Z,21.80
2018-06-01T04:11:42.669Z,21.80
2018-06-01T04:12:14.426Z,21.80
2018-06-01T04:12:46.162Z,21.80
2018-06-01T04:13:17.932Z,21.80
2018-06-01T04:13:49.716Z,21.80
2018-06-01T04:14:21.395Z,21.80
2018-06-01T04:14:53.137Z,21.80
2018-06-01T04:15:25.658Z,21.70
2018-06-01T04:15:57.381Z,21.80
2018-06-01T04:16:29.094Z,21.80
2018-06-01T04:17:00.879Z,21.80
2018-06-01T04:17:32.588Z,21.80
2018-06-01T04:18:04.426Z,21.80
2018-06-01T04:18:37.178Z,21.80
2018-06-01T04:19:09.692Z,21.80
2018-06-01T04:19:41.395Z,21.80
2018-06-01T04:20:13.888Z,21.80
2018-06-01T04:20:45.646Z,21.80
2018-06-01T04:21:17.363Z,21.80
2018-06-01T04:21:49.100Z,21.80
2018-06-01T04:22:20.821Z,21.80
2018-06-01T04:22:52.561Z,21.80
2018-06-01T04:23:25.066Z,21.80
2018-06-01T04:23:56.796Z,21.80
2018-06-01T04:24:29.273Z,21.70
2018-06-01T04:25:01.045Z,21.70
2018-06-01T04:25:32.775Z,21.80
2018-06-01T04:26:04.555Z,21.70
2018-06-01T04:26:36.303Z,21.70
2018-06-01T04:27:08.073Z,21.70
2018-06-01T04:27:39.797Z,21.70
2018-06-01T04:28:12.289Z,21.80
2018-06-01T04:28:44.034Z,21.70
2018-06-01T04:29:15.763Z,21.70
2018-06-01T04:29:47.507Z,21.80
2018-06-01T04:30:20.054Z,21.80
2018-06-01T04:30:51.821Z,21.70
2018-06-01T04:31:23.518Z,21.80
2018-06-01T04:31:55.245Z,21.70
2018-06-01T04:32:27.019Z,21.70
2018-06-01T04:32:58.753Z,21.80
2018-06-01T04:33:30.465Z,21.80
2018-06-01T04:34:02.223Z,21.80
2018-06-01T04:34:33.955Z,21.80
2018-06-01T04:35:05.681Z,21.70
2018-06-01T04:35:37.426Z,21.70
2018-06-01T04:36:09.160Z,21.80
2018-06-01T04:36:41.653Z,21.80
2018-06-01T04:37:13.388Z,21.70
2018-06-01T04:37:45.099Z,21.80
2018-06-01T04:38:17.627Z,21.80
2018-06-01T04:38:49.347Z,21.70
2018-06-01T04:39:21.121Z,21.80
2018-06-01T04:39:52.834Z,21.70
2018-06-01T04:40:24.565Z,21.70
2018-06-01T04:40:56.329Z,21.70
2018-06-01T04:41:28.094Z,21.70
2018-06-01T04:41:59.841Z,21.80
2018-06-01T04:42:31.622Z,21.70
2018-06-01T04:43:04.103Z,21.70
2018-06-01T04:43:35.881Z,21.80
2018-06-01T04:44:07.600Z,21.70
2018-06-01T04:44:39.333Z,21.70
2018-06-01T04:45:11.086Z,21.80
2018-06-01T04:45:42.822Z,21.80
2018-06-01T04:46:14.543Z,21.80
2018-06-01T04:46:47.043Z,21.70
2018-06-01T04:47:18.777Z,21.70
2018-06-01T04:47:50.514Z,21.70
2018-06-01T04:48:22.238Z,21.70
2018-06-01T04:48:54.761Z,21.70
2018-06-01T04:49:26.460Z,21.70
2018-06-01T04:49:58.207Z,21.80
2018-06-01T04:50:29.950Z,21.80
2018-06-01T04:51:02.484Z,21.80
2018-06-01T04:51:34.203Z,21.70
2018-06-01T04:52:05.950Z,21.80
2018-06-01T04:52:37.686Z,21.80
2018-06-01T04:53:09.411Z,21.70
2018-06-01T04:53:41.142Z,21.70
2018-06-01T04:54:12.862Z,21.80
2018-06-01T04:54:45.350Z,21.80
2018-06-01T04:55:17.070Z,21.70
2018-06-01T04:55:48.821Z,21.80
2018-06-01T04:56:20.570Z,21.80
2018-06-01T04:56:52.295Z,21.70
2018-06-01T04:57:24.794Z,21.80
2018-06-01T04:57:56.540Z,21.70
2018-06-01T04:58:28.275Z,21.70
2018-06-01T04:59:00.105Z,21.70
2018-06-01T04:59:31.820Z,21.70
2018-06-01T05:00:03.542Z,21.70
2018-06-01T05:00:35.266Z,21.70
2018-06-01T05:01:06.997Z,21.70
2018-06-01T05:01:38.745Z,21.60
2018-06-01T05:02:10.471Z,21.70
2018-06-01T05:02:42.235Z,21.70
2018-06-01T05:03:14.716Z,21.70
2018-06-01T05:03:46.435Z,21.60
2018-06-01T05:04:18.165Z,21.70
2018-06-01T05:04:49.906Z,21.70
2018-06-01T05:05:21.671Z,21.70
2018-06-01T05:05:53.401Z,21.70
2018-06-01T05:06:25.176Z,21.70
2018-06-01T05:06:56.895Z,21.70
2018-06-01T05:07:28.632Z,21.70
2018-06-01T05:08:00.375Z,21.70
2018-06-01T05:08:32.117Z,21.70
2018-06-01T05:09:03.860Z,21.70
2018-06-01T05:09:36.343Z,21.70
2018-06-01T05:10:08.108Z,21.70
2018-06-01T05:10:39.812Z,21.70
2018-06-01T05:11:12.312Z,21.80
2018-06-01T05:11:44.031Z,21.70
2018-06-01T05:12:15.773Z,21.70
2018-06-01T05:12:47.505Z,21.80
2018-06-01T05:13:19.266Z,21.70
2018-06-01T05:13:50.997Z,21.70
2018-06-01T05:14:23.500Z,21.80
2018-06-01T05:14:55.237Z,21.70
2018-06-01T05:15:26.972Z,21.70
2018-06-01T05:15:58.702Z,21.70
2018-06-01T05:16:30.447Z,21.70
2018-06-01T05:17:02.219Z,21.70
2018-06-01T05:17:33.984Z,21.70
2018-06-01T05:18:05.813Z,21.70
2018-06-01T05:18:37.547Z,21.70
2018-06-01T05:19:09.271Z,21.70
2018-06-01T05:19:40.999Z,21.70
2018-06-01T05:20:13.497Z,21.70
2018-06-01T05:20:45.211Z,21.80
2018-06-01T05:21:17.705Z,21.70
2018-06-01T05:21:49.410Z,21.70
2018-06-01T05:22:21.194Z,21.80
2018-06-01T05:22:53.649Z,21.80
2018-06-01T05:23:25.420Z,21.70
2018-06-01T05:23:57.130Z,21.70
2018-06-01T05:24:28.862Z,21.80
2018-06-01T05:25:00.628Z,21.70
2018-06-01T05:25:32.370Z,21.80
2018-06-01T05:26:04.087Z,21.70
2018-06-01T05:26:36.584Z,21.70
2018-06-01T05:27:08.312Z,21.70
2018-06-01T05:27:40.035Z,21.80
2018-06-01T05:28:12.533Z,21.80
2018-06-01T05:28:44.262Z,21.80
2018-06-01T05:29:15.993Z,21.80
2018-06-01T05:29:47.727Z,21.70
2018-06-01T05:30:20.215Z,21.70
2018-06-01T05:30:51.952Z,21.70
2018-06-01T05:31:23.668Z,21.70
2018-06-01T05:31:56.165Z,21.80
2018-06-01T05:32:27.902Z,21.80
2018-06-01T05:32:59.632Z,21.70
2018-06-01T05:33:32.125Z,21.80
2018-06-01T05:34:03.854Z,21.70
2018-06-01T05:34:35.573Z,21.80
2018-06-01T05:35:08.077Z,21.80
2018-06-01T05:35:39.803Z,21.80
2018-06-01T05:36:11.537Z,21.70
2018-06-01T05:36:43.266Z,21.70
2018-06-01T05:37:15.776Z,21.70
2018-06-01T05:37:47.517Z,21.70
2018-06-01T05:38:19.267Z,21.80
2018-06-01T05:38:51.017Z,21.70
2018-06-01T05:39:22.730Z,21.70
2018-06-01T05:39:54.493Z,21.70
2018-06-01T05:40:26.211Z,21.70
2018-06-01T05:40:57.978Z,21.70
2018-06-01T05:41:29.727Z,21.80
2018-06-01T05:42:01.498Z,21.80
2018-06-01T05:42:33.182Z,21.70
2018-06-01T05:43:04.961Z,21.70
2018-06-01T05:43:36.672Z,21.70
2018-06-01T05:44:09.169Z,21.70
2018-06-01T05:44:40.917Z,21.70
2018-06-01T05:45:12.619Z,21.80
2018-06-01T05:45:44.359Z,21.70
2018-06-01T05:46:16.878Z,21.80
2018-06-01T05:46:48.619Z,21.80
2018-06-01T05:47:20.405Z,21.80
2018-06-01T05:47:52.112Z,21.80
2018-06-01T05:48:23.841Z,21.80
2018-06-01T05:48:55.579Z,21.80
2018-06-01T05:49:27.312Z,21.80
2018-06-01T05:49:59.041Z,21.80
2018-06-01T05:50:30.779Z,21.80
2018-06-01T05:51:03.272Z,21.80
2018-06-01T05:51:34.993Z,21.80
2018-06-01T05:52:06.787Z,21.80
2018-06-01T05:52:38.486Z,21.80
2018-06-01T05:53:10.205Z,21.80
2018-06-01T05:53:42.700Z,21.80
2018-06-01T05:54:14.417Z,21.80
2018-06-01T05:54:46.953Z,21.80
2018-06-01T05:55:18.679Z,21.70
2018-06-01T05:55:50.427Z,21.80
2018-06-01T05:56:22.163Z,21.80
2018-06-01T05:56:53.911Z,21.80
2018-06-01T05:57:25.663Z,21.70
2018-06-01T05:57:57.388Z,21.70
2018-06-01T05:58:29.101Z,21.70
2018-06-01T05:59:00.900Z,21.70
2018-06-01T05:59:32.655Z,21.70
2018-06-01T06:00:04.390Z,21.70
2018-06-01T06:00:36.156Z,21.70
2018-06-01T06:01:07.898Z,21.80
2018-06-01T06:01:39.619Z,21.80
2018-06-01T06:02:11.392Z,21.70
2018-06-01T06:02:43.095Z,21.70
2018-06-01T06:03:14.822Z,21.80
2018-06-01T06:03:46.589Z,21.70
2018-06-01T06:04:18.304Z,21.70
2018-06-01T06:04:50.802Z,21.70
2018-06-01T06:05:22.547Z,21.70
2018-06-01T06:05:54.282Z,21.70
2018-06-01T06:06:26.035Z,21.70
2018-06-01T06:06:57.762Z,21.80
2018-06-01T06:07:29.502Z,21.80
2018-06-01T06:08:01.244Z,21.80
2018-06-01T06:08:32.976Z,21.80
2018-06-01T06:09:04.698Z,21.80
2018-06-01T06:09:37.214Z,21.90
2018-06-01T06:10:08.958Z,21.90
2018-06-01T06:10:40.701Z,21.80
2018-06-01T06:11:12.425Z,21.80
2018-06-01T06:11:44.215Z,21.80
2018-06-01T06:12:15.927Z,21.80
2018-06-01T06:12:47.681Z,21.80
2018-06-01T06:13:19.440Z,21.80
2018-06-01T06:13:51.143Z,21.70
2018-06-01T06:14:22.877Z,21.70
2018-06-01T06:14:54.630Z,21.80
2018-06-01T06:15:26.389Z,21.70
2018-06-01T06:15:58.157Z,21.70
2018-06-01T06:16:29.899Z,21.70
2018-06-01T06:17:01.748Z,21.70
2018-06-01T06:17:33.483Z,21.70
2018-06-01T06:18:05.192Z,21.70
2018-06-01T06:18:36.924Z,21.70
2018-06-01T06:19:08.856Z,21.70
2018-06-01T06:19:41.377Z,21.70
2018-06-01T06:20:13.130Z,21.70
2018-06-01T06:20:44.859Z,21.70
2018-06-01T06:21:16.575Z,21.70
2018-06-01T06:21:48.303Z,21.70
2018-06-01T06:22:20.055Z,21.70
2018-06-01T06:22:51.786Z,21.70
2018-06-01T06:23:24.291Z,21.70
2018-06-01T06:23:55.989Z,21.70
2018-06-01T06:24:28.481Z,21.70
2018-06-01T06:25:00.209Z,21.70
2018-06-01T06:25:31.944Z,21.70
2018-06-01T06:26:04.431Z,21.70
2018-06-01T06:26:36.153Z,21.70
2018-06-01T06:27:08.646Z,21.70
2018-06-01T06:27:40.386Z,21.70
2018-06-01T06:28:12.114Z,21.70
2018-06-01T06:28:43.841Z,21.70
2018-06-01T06:29:16.326Z,21.70
2018-06-01T06:29:48.070Z,21.70
2018-06-01T06:30:19.787Z,21.70
2018-06-01T06:30:52.277Z,21.70
2018-06-01T06:31:24.010Z,21.70
2018-06-01T06:31:56.504Z,21.70
2018-06-01T06:32:28.238Z,21.70
2018-06-01T06:32:59.978Z,21.70
2018-06-01T06:33:31.737Z,21.70
2018-06-01T06:34:03.492Z,21.70
2018-06-01T06:34:35.231Z,21.70
2018-06-01T06:35:06.958Z,21.70
2018-06-01T06:35:38.690Z,21.70
2018-06-01T06:36:10.425Z,21.70
2018-06-01T06:36:42.166Z,21.70
2018-06-01T06:37:14.667Z,21.70
2018-06-01T06:37:46.461Z,21.70
2018-06-01T06:38:18.166Z,21.70
2018-06-01T06:38:49.899Z,21.70
2018-06-01T06:39:21.639Z,21.70
2018-06-01T06:39:53.375Z,21.70
2018-06-01T06:40:25.111Z,21.70
2018-06-01T06:40:56.834Z,21.80
2018-06-01T06:41:28.577Z,21.80
2018-06-01T06:42:01.068Z,21.80
2018-06-01T06:42:32.814Z,21.80
2018-06-01T06:43:04.547Z,21.80
2018-06-01T06:43:36.271Z,21.80
2018-06-01T06:44:08.746Z,21.80
2018-06-01T06:44:40.486Z,21.80
2018-06-01T06:45:12.975Z,21.80
2018-06-01T06:45:44.718Z,21.80
2018-06-01T06:46:16.452Z,21.80
2018-06-01T06:46:48.182Z,21.90
2018-06-01T06:47:19.925Z,21.80
2018-06-01T06:47:51.674Z,21.80
2018-06-01T06:48:24.131Z,21.90
2018-06-01T06:48:55.901Z,21.90
2018-06-01T06:49:27.598Z,21.90
2018-06-01T06:50:00.293Z,21.90
2018-06-01T06:50:32.022Z,21.90